createdAt,value
2023-05-01T00:00:17.725Z,67.76
2023-05-01T00:01:20.915Z,67.98
2023-05-01T00:02:24.561Z,67.98
2023-05-01T00:04:01.365Z,67.92
2023-05-01T00:05:06.530Z,67.96
2023-05-01T00:06:10.131Z,68.12
2023-05-01T00:07:45.999Z,68.12
2023-05-01T00:08:49.500Z,68.25
2023-05-01T00:09:53.061Z,68.25
2023-05-01T00:11:29.123Z,68.37
2023-05-01T00:12:32.607Z,68.56
2023-05-01T00:13:35.968Z,68.53
2023-05-01T00:15:11.490Z,68.78
2023-05-01T00:16:14.916Z,68.98
2023-05-01T00:17:18.874Z,68.91
2023-05-01T00:18:54.611Z,69.09
2023-05-01T00:19:58.075Z,69.09
2023-05-01T00:21:01.859Z,69.14
2023-05-01T00:22:37.572Z,69.41
2023-05-01T00:23:41.308Z,69.35
2023-05-01T00:24:44.856Z,69.51
2023-05-01T00:26:20.627Z,69.83
2023-05-01T00:27:23.997Z,69.82
2023-05-01T00:28:27.282Z,69.90
2023-05-01T00:30:03.383Z,69.89
2023-05-01T00:31:06.702Z,70.15
2023-05-01T00:32:10.511Z,70.15
2023-05-01T00:33:46.476Z,70.28
2023-05-01T00:34:49.877Z,70.41
2023-05-01T00:35:53.563Z,70.45
2023-05-01T00:37:30.831Z,70.51
2023-05-01T00:38:34.462Z,70.51
2023-05-01T00:39:37.892Z,70.70
2023-05-01T00:41:13.927Z,70.97
2023-05-01T00:42:17.423Z,71.09
2023-05-01T00:43:20.802Z,71.12
2023-05-01T00:44:56.197Z,71.14
2023-05-01T00:45:59.857Z,71.13
2023-05-01T00:47:04.006Z,71.24
2023-05-01T00:48:39.784Z,71.36
2023-05-01T00:49:43.319Z,71.35
2023-05-01T00:50:47.346Z,71.40
2023-05-01T00:52:22.848Z,71.58
2023-05-01T00:53:26.192Z,71.58
2023-05-01T00:54:29.589Z,71.77
2023-05-01T00:56:05.133Z,71.77
2023-05-01T00:57:08.704Z,71.72
2023-05-01T00:58:12.347Z,71.78
2023-05-01T00:59:48.036Z,72.08
2023-05-01T01:00:18.223Z,72.08
2023-05-01T01:01:21.582Z,72.12
2023-05-01T01:02:25.770Z,72.13
2023-05-01T01:04:01.445Z,72.20
2023-05-01T01:05:05.268Z,72.27
2023-05-01T01:06:08.812Z,72.30
2023-05-01T01:07:44.825Z,72.30
2023-05-01T01:08:48.183Z,72.32
2023-05-01T01:09:51.742Z,72.51
2023-05-01T01:11:27.895Z,72.58
2023-05-01T01:12:31.352Z,72.63
2023-05-01T01:13:34.834Z,72.49
2023-05-01T01:15:10.257Z,72.54
2023-05-01T01:16:13.694Z,72.53
2023-05-01T01:17:17.505Z,72.40
2023-05-01T01:18:53.442Z,72.21
2023-05-01T01:19:57.059Z,72.15
2023-05-01T01:21:00.642Z,72.11
2023-05-01T01:22:36.144Z,72.16
2023-05-01T01:23:39.628Z,72.24
2023-05-01T01:24:43.267Z,72.36
2023-05-01T01:26:18.982Z,72.66
2023-05-01T01:27:22.303Z,72.66
2023-05-01T01:28:25.596Z,72.54
2023-05-01T01:30:01.809Z,72.45
2023-05-01T01:31:05.112Z,72.45
2023-05-01T01:32:08.852Z,72.56
2023-05-01T01:33:45.059Z,72.61
2023-05-01T01:34:48.295Z,72.58
2023-05-01T01:35:51.917Z,72.64
2023-05-01T01:37:27.345Z,72.85
2023-05-01T01:38:30.756Z,72.89
2023-05-01T01:39:34.333Z,72.84
2023-05-01T01:41:10.515Z,72.54
2023-05-01T01:42:13.941Z,72.34
2023-05-01T01:43:17.491Z,72.40
2023-05-01T01:44:52.955Z,72.59
2023-05-01T01:45:56.464Z,72.53
2023-05-01T01:47:00.125Z,72.53
2023-05-01T01:48:35.455Z,72.53
2023-05-01T01:49:38.697Z,72.13
2023-05-01T01:50:42.767Z,72.13
2023-05-01T01:52:18.261Z,71.94
2023-05-01T01:53:21.847Z,71.81
2023-05-01T01:54:25.317Z,71.78
2023-05-01T01:56:03.627Z,71.50
2023-05-01T01:57:07.038Z,71.43
2023-05-01T01:58:10.318Z,71.43
2023-05-01T01:59:46.019Z,71.28
2023-05-01T02:00:17.968Z,71.28
2023-05-01T02:01:21.684Z,71.22
2023-05-01T02:02:25.684Z,71.25
2023-05-01T02:04:02.796Z,71.06
2023-05-01T02:05:07.145Z,71.06
2023-05-01T02:06:10.881Z,71.02
2023-05-01T02:07:46.857Z,70.97
2023-05-01T02:08:50.201Z,70.90
2023-05-01T02:09:53.909Z,70.93
2023-05-01T02:11:29.809Z,70.98
2023-05-01T02:12:33.080Z,71.08
2023-05-01T02:13:36.689Z,71.00
2023-05-01T02:15:12.376Z,70.80
2023-05-01T02:16:16.040Z,70.71
2023-05-01T02:17:19.897Z,70.58
2023-05-01T02:18:55.793Z,70.73
2023-05-01T02:19:59.939Z,70.72
2023-05-01T02:21:03.536Z,70.86
2023-05-01T02:22:39.404Z,70.91
2023-05-01T02:23:42.921Z,70.81
2023-05-01T02:24:46.507Z,70.80
2023-05-01T02:26:21.981Z,70.84
2023-05-01T02:27:25.276Z,70.84
2023-05-01T02:28:28.639Z,70.89
2023-05-01T02:30:04.489Z,71.05
2023-05-01T02:31:08.134Z,71.05
2023-05-01T02:32:12.056Z,71.01
2023-05-01T02:33:47.822Z,71.06
2023-05-01T02:34:51.186Z,71.06
2023-05-01T02:35:54.462Z,71.08
2023-05-01T02:37:30.073Z,71.11
2023-05-01T02:38:33.628Z,71.11
2023-05-01T02:39:37.165Z,71.18
2023-05-01T02:41:12.900Z,71.18
2023-05-01T02:42:16.324Z,71.18
2023-05-01T02:43:19.754Z,71.11
2023-05-01T02:44:55.609Z,71.18
2023-05-01T02:45:59.169Z,71.13
2023-05-01T02:47:02.921Z,71.19
2023-05-01T02:48:39.197Z,71.29
2023-05-01T02:49:42.865Z,71.24
2023-05-01T02:50:46.679Z,71.22
2023-05-01T02:52:22.201Z,71.45
2023-05-01T02:53:25.795Z,71.39
2023-05-01T02:54:29.390Z,71.35
2023-05-01T02:56:05.082Z,71.30
2023-05-01T02:57:08.587Z,71.34
2023-05-01T02:58:12.019Z,71.51
2023-05-01T02:59:47.517Z,71.44
2023-05-01T03:00:17.733Z,71.54
2023-05-01T03:01:20.924Z,71.50
2023-05-01T03:02:24.989Z,71.65
2023-05-01T03:04:00.812Z,71.67
2023-05-01T03:05:04.565Z,71.68
2023-05-01T03:06:08.126Z,71.72
2023-05-01T03:07:44.290Z,71.79
2023-05-01T03:08:47.562Z,71.86
2023-05-01T03:09:51.090Z,71.87
2023-05-01T03:11:26.980Z,71.87
2023-05-01T03:12:30.511Z,71.87
2023-05-01T03:13:34.112Z,71.90
2023-05-01T03:15:09.578Z,72.00
2023-05-01T03:16:13.419Z,72.31
2023-05-01T03:17:17.206Z,72.18
2023-05-01T03:18:53.059Z,72.10
2023-05-01T03:19:56.817Z,72.16
2023-05-01T03:21:00.590Z,72.15
2023-05-01T03:22:36.209Z,72.16
2023-05-01T03:23:39.687Z,72.30
2023-05-01T03:24:43.104Z,72.19
2023-05-01T03:26:18.603Z,72.45
2023-05-01T03:27:22.387Z,72.52
2023-05-01T03:28:25.918Z,72.46
2023-05-01T03:30:02.006Z,72.40
2023-05-01T03:31:05.642Z,72.38
2023-05-01T03:32:09.084Z,72.44
2023-05-01T03:33:45.527Z,72.38
2023-05-01T03:34:48.974Z,72.38
2023-05-01T03:35:52.714Z,72.42
2023-05-01T03:37:28.443Z,72.50
2023-05-01T03:38:31.869Z,72.55
2023-05-01T03:39:35.259Z,72.55
2023-05-01T03:41:11.134Z,72.87
2023-05-01T03:42:14.582Z,72.81
2023-05-01T03:43:18.044Z,73.00
2023-05-01T03:44:53.822Z,73.08
2023-05-01T03:45:57.323Z,73.09
2023-05-01T03:47:01.216Z,73.22
2023-05-01T03:48:36.989Z,73.19
2023-05-01T03:49:40.529Z,73.33
2023-05-01T03:50:44.650Z,73.26
2023-05-01T03:52:20.154Z,73.56
2023-05-01T03:53:23.644Z,73.60
2023-05-01T03:54:27.120Z,73.72
2023-05-01T03:56:02.937Z,73.77
2023-05-01T03:57:06.481Z,73.93
2023-05-01T03:58:10.261Z,73.96
2023-05-01T03:59:46.022Z,74.37
2023-05-01T04:00:18.484Z,74.54
2023-05-01T04:01:21.694Z,74.48
2023-05-01T04:02:25.858Z,74.71
2023-05-01T04:04:02.846Z,74.48
2023-05-01T04:05:48.277Z,74.86
2023-05-01T04:06:52.384Z,74.90
2023-05-01T04:07:55.621Z,75.02
2023-05-01T04:09:31.173Z,74.93
2023-05-01T04:10:34.833Z,74.86
2023-05-01T04:11:38.614Z,74.96
2023-05-01T04:13:13.580Z,75.14
2023-05-01T04:14:16.914Z,75.23
2023-05-01T04:15:21.422Z,75.26
2023-05-01T04:16:56.996Z,75.55
2023-05-01T04:18:00.318Z,75.65
2023-05-01T04:19:03.723Z,75.73
2023-05-01T04:20:39.437Z,75.39
2023-05-01T04:21:42.737Z,75.42
2023-05-01T04:22:46.027Z,75.70
2023-05-01T04:24:21.444Z,75.82
2023-05-01T04:25:25.061Z,75.74
2023-05-01T04:26:28.358Z,75.79
2023-05-01T04:28:03.460Z,75.96
2023-05-01T04:29:06.930Z,75.48
2023-05-01T04:30:10.255Z,75.35
2023-05-01T04:31:46.332Z,74.83
2023-05-01T04:32:50.438Z,74.97
2023-05-01T04:33:53.925Z,75.19
2023-05-01T04:35:29.464Z,75.39
2023-05-01T04:36:32.603Z,75.45
2023-05-01T04:37:35.894Z,75.33
2023-05-01T04:39:10.956Z,75.00
2023-05-01T04:40:17.335Z,74.84
2023-05-01T04:41:20.573Z,74.70
2023-05-01T04:42:55.964Z,74.43
2023-05-01T04:43:59.055Z,74.27
2023-05-01T04:45:02.546Z,74.17
2023-05-01T04:46:37.911Z,74.08
2023-05-01T04:47:41.821Z,74.09
2023-05-01T04:48:45.605Z,73.98
2023-05-01T04:50:20.891Z,73.91
2023-05-01T04:51:24.518Z,73.95
2023-05-01T04:52:27.853Z,73.94
2023-05-01T04:54:02.751Z,73.78
2023-05-01T04:55:06.068Z,73.98
2023-05-01T04:56:11.758Z,73.71
2023-05-01T04:57:46.997Z,73.69
2023-05-01T04:58:50.356Z,73.72
2023-05-01T04:59:53.713Z,73.63
2023-05-01T05:00:17.651Z,73.63
2023-05-01T05:01:21.098Z,73.51
2023-05-01T05:02:24.523Z,73.46
2023-05-01T05:04:01.188Z,73.30
2023-05-01T05:05:05.038Z,73.05
2023-05-01T05:06:08.351Z,73.01
2023-05-01T05:07:44.266Z,72.91
2023-05-01T05:08:47.620Z,72.75
2023-05-01T05:09:50.764Z,72.72
2023-05-01T05:11:26.631Z,72.62
2023-05-01T05:12:30.340Z,72.52
2023-05-01T05:13:33.639Z,72.49
2023-05-01T05:15:09.133Z,72.68
2023-05-01T05:16:12.326Z,72.74
2023-05-01T05:17:15.830Z,72.86
2023-05-01T05:18:51.102Z,72.97
2023-05-01T05:19:54.758Z,73.05
2023-05-01T05:20:58.512Z,73.10
2023-05-01T05:22:33.835Z,73.06
2023-05-01T05:23:37.287Z,72.83
2023-05-01T05:24:40.628Z,72.49
2023-05-01T05:26:16.013Z,72.14
2023-05-01T05:27:19.429Z,71.87
2023-05-01T05:28:22.681Z,71.98
2023-05-01T05:29:58.257Z,72.04
2023-05-01T05:31:01.698Z,72.01
2023-05-01T05:32:05.852Z,71.95
2023-05-01T05:33:41.712Z,72.19
2023-05-01T05:34:45.242Z,72.18
2023-05-01T05:35:48.450Z,72.15
2023-05-01T05:37:23.953Z,72.04
2023-05-01T05:38:27.818Z,71.95
2023-05-01T05:39:31.266Z,71.76
2023-05-01T05:41:07.374Z,71.57
2023-05-01T05:42:10.682Z,71.42
2023-05-01T05:43:14.116Z,71.47
2023-05-01T05:44:52.121Z,71.26
2023-05-01T05:45:55.586Z,71.24
2023-05-01T05:46:59.399Z,71.38
2023-05-01T05:48:35.177Z,71.24
2023-05-01T05:49:38.551Z,71.22
2023-05-01T05:50:42.510Z,71.18
2023-05-01T05:52:17.711Z,71.14
2023-05-01T05:53:21.242Z,70.96
2023-05-01T05:54:25.456Z,70.93
2023-05-01T05:56:00.895Z,70.74
2023-05-01T05:57:04.336Z,70.82
2023-05-01T05:58:07.475Z,70.56
2023-05-01T05:59:42.817Z,70.25
2023-05-01T06:01:22.002Z,70.55
2023-05-01T06:02:25.560Z,70.37
2023-05-01T06:04:02.349Z,70.49
2023-05-01T06:05:05.855Z,70.50
2023-05-01T06:06:10.307Z,70.74
2023-05-01T06:07:46.167Z,70.83
2023-05-01T06:08:49.591Z,71.30
2023-05-01T06:09:53.582Z,71.17
2023-05-01T06:11:29.633Z,71.06
2023-05-01T06:12:34.651Z,70.78
2023-05-01T06:14:06.577Z,70.82
2023-05-01T06:15:42.296Z,70.52
2023-05-01T06:16:46.001Z,70.67
2023-05-01T06:17:49.399Z,70.77
2023-05-01T06:19:26.543Z,70.89
2023-05-01T06:20:29.935Z,70.55
2023-05-01T06:21:33.406Z,70.12
2023-05-01T06:23:09.112Z,70.28
2023-05-01T06:24:12.594Z,70.11
2023-05-01T06:25:15.748Z,70.05
2023-05-01T06:26:51.019Z,69.69
2023-05-01T06:27:54.271Z,69.55
2023-05-01T06:28:57.593Z,69.50
2023-05-01T06:30:33.033Z,69.45
2023-05-01T06:31:36.750Z,69.28
2023-05-01T06:32:40.428Z,69.23
2023-05-01T06:34:16.000Z,69.36
2023-05-01T06:35:19.225Z,69.33
2023-05-01T06:36:22.689Z,69.52
2023-05-01T06:37:58.140Z,69.46
2023-05-01T06:39:01.377Z,69.46
2023-05-01T06:40:05.120Z,69.65
2023-05-01T06:41:40.386Z,69.73
2023-05-01T06:42:43.766Z,69.81
2023-05-01T06:43:47.194Z,69.86
2023-05-01T06:45:22.761Z,69.81
2023-05-01T06:46:26.235Z,69.64
2023-05-01T06:47:30.149Z,69.62
2023-05-01T06:49:05.752Z,69.41
2023-05-01T06:50:11.343Z,69.50
2023-05-01T06:51:14.720Z,68.96
2023-05-01T06:52:50.395Z,69.22
2023-05-01T06:53:53.809Z,69.42
2023-05-01T06:54:57.130Z,68.81
2023-05-01T06:56:32.599Z,68.77
2023-05-01T06:57:35.781Z,68.05
2023-05-01T06:58:43.100Z,67.93
2023-05-01T07:00:17.959Z,68.31
2023-05-01T07:01:21.960Z,68.45
2023-05-01T07:02:28.144Z,68.49
2023-05-01T07:04:04.144Z,68.49
2023-05-01T07:05:07.399Z,68.50
2023-05-01T07:06:10.888Z,68.55
2023-05-01T07:08:01.200Z,68.46
2023-05-01T07:09:04.685Z,67.99
2023-05-01T07:10:08.136Z,68.12
2023-05-01T07:11:43.457Z,68.10
2023-05-01T07:12:46.852Z,68.43
2023-05-01T07:13:50.382Z,68.51
2023-05-01T07:15:25.926Z,67.88
2023-05-01T07:16:29.289Z,68.06
2023-05-01T07:17:32.947Z,68.14
2023-05-01T07:19:08.887Z,68.71
2023-05-01T07:20:12.339Z,68.39
2023-05-01T07:21:15.841Z,69.13
2023-05-01T07:22:51.211Z,69.39
2023-05-01T07:23:56.085Z,69.75
2023-05-01T07:24:59.403Z,69.16
2023-05-01T07:26:35.083Z,69.00
2023-05-01T07:27:38.485Z,67.81
2023-05-01T07:28:41.512Z,68.19
2023-05-01T07:30:16.890Z,67.99
2023-05-01T07:31:20.565Z,68.08
2023-05-01T07:32:24.800Z,67.93
2023-05-01T07:34:00.665Z,67.72
2023-05-01T07:35:03.691Z,68.38
2023-05-01T07:36:07.110Z,68.15
2023-05-01T07:37:42.500Z,68.00
2023-05-01T07:38:45.773Z,65.74
2023-05-01T07:39:49.190Z,66.37
2023-05-01T07:41:25.091Z,66.02
2023-05-01T07:42:28.618Z,66.47
2023-05-01T07:43:35.396Z,66.47
2023-05-01T07:45:10.896Z,67.32
2023-05-01T07:46:14.817Z,67.60
2023-05-01T07:47:18.726Z,67.82
2023-05-01T07:48:54.908Z,68.18
2023-05-01T07:49:58.245Z,68.18
2023-05-01T07:51:02.206Z,68.02
2023-05-01T07:52:37.738Z,68.91
2023-05-01T07:53:41.428Z,69.87
2023-05-01T07:54:45.430Z,69.87
2023-05-01T07:56:20.831Z,68.40
2023-05-01T07:57:23.976Z,68.40
2023-05-01T07:58:27.650Z,67.57
2023-05-01T08:00:17.827Z,67.47
2023-05-01T08:01:21.000Z,67.47
2023-05-01T08:02:24.727Z,68.18
2023-05-01T08:04:01.544Z,68.38
2023-05-01T08:05:05.671Z,68.61
2023-05-01T08:06:09.209Z,68.61
2023-05-01T08:07:44.971Z,68.96
2023-05-01T08:08:48.233Z,68.50
2023-05-01T08:09:51.711Z,68.05
2023-05-01T08:11:30.232Z,67.87
2023-05-01T08:12:33.234Z,67.56
2023-05-01T08:13:36.619Z,67.53
2023-05-01T08:15:11.990Z,67.24
2023-05-01T08:16:15.680Z,66.96
2023-05-01T08:17:20.798Z,67.34
2023-05-01T08:18:56.356Z,66.45
2023-05-01T08:20:00.041Z,66.44
2023-05-01T08:21:03.639Z,66.61
2023-05-01T08:22:38.905Z,66.51
2023-05-01T08:23:42.850Z,66.70
2023-05-01T08:24:46.214Z,66.13
2023-05-01T08:26:22.856Z,65.82
2023-05-01T08:27:26.030Z,65.85
2023-05-01T08:28:29.703Z,65.58
2023-05-01T08:30:05.250Z,66.12
2023-05-01T08:31:08.967Z,66.13
2023-05-01T08:32:12.609Z,65.47
2023-05-01T08:33:48.621Z,65.44
2023-05-01T08:34:52.290Z,66.17
2023-05-01T08:35:55.856Z,66.00
2023-05-01T08:37:33.897Z,65.04
2023-05-01T08:38:37.454Z,65.66
2023-05-01T08:39:40.925Z,66.34
2023-05-01T08:41:16.999Z,66.08
2023-05-01T08:42:20.253Z,65.67
2023-05-01T08:43:24.512Z,66.36
2023-05-01T08:44:59.954Z,66.21
2023-05-01T08:46:03.394Z,64.25
2023-05-01T08:47:07.715Z,65.41
2023-05-01T08:48:43.574Z,64.60
2023-05-01T08:49:47.013Z,65.04
2023-05-01T08:50:51.314Z,64.34
2023-05-01T08:52:26.923Z,66.28
2023-05-01T08:53:30.325Z,64.77
2023-05-01T08:54:33.864Z,64.93
2023-05-01T08:56:09.049Z,63.04
2023-05-01T08:57:15.918Z,62.87
2023-05-01T08:58:19.617Z,62.66
2023-05-01T08:59:55.629Z,60.84
2023-05-01T09:00:18.721Z,62.90
2023-05-01T09:01:22.767Z,61.95
2023-05-01T09:02:26.951Z,63.18
2023-05-01T09:04:03.545Z,63.09
2023-05-01T09:05:07.330Z,63.97
2023-05-01T09:06:11.005Z,63.10
2023-05-01T09:07:47.319Z,62.76
2023-05-01T09:08:50.700Z,64.31
2023-05-01T09:09:54.793Z,63.49
2023-05-01T09:11:30.447Z,63.28
2023-05-01T09:12:33.786Z,63.86
2023-05-01T09:13:37.233Z,63.79
2023-05-01T09:15:12.992Z,61.70
2023-05-01T09:16:16.595Z,63.13
2023-05-01T09:17:20.436Z,63.63
2023-05-01T09:18:56.966Z,61.69
2023-05-01T09:20:00.732Z,61.38
2023-05-01T09:21:04.253Z,61.40
2023-05-01T09:22:39.807Z,62.41
2023-05-01T09:23:43.526Z,62.53
2023-05-01T09:24:47.034Z,62.41
2023-05-01T09:26:22.575Z,63.45
2023-05-01T09:27:26.046Z,62.88
2023-05-01T09:28:29.432Z,62.22
2023-05-01T09:30:05.255Z,63.13
2023-05-01T09:31:08.523Z,64.09
2023-05-01T09:32:12.812Z,63.40
2023-05-01T09:33:49.489Z,61.86
2023-05-01T09:34:53.140Z,59.93
2023-05-01T09:35:56.589Z,60.55
2023-05-01T09:37:32.080Z,59.32
2023-05-01T09:38:35.566Z,57.55
2023-05-01T09:39:38.861Z,56.82
2023-05-01T09:41:15.176Z,58.46
2023-05-01T09:42:18.840Z,57.02
2023-05-01T09:43:22.388Z,58.67
2023-05-01T09:44:57.596Z,58.05
2023-05-01T09:46:01.275Z,58.86
2023-05-01T09:47:05.690Z,58.52
2023-05-01T09:48:42.101Z,55.40
2023-05-01T09:49:45.439Z,56.59
2023-05-01T09:50:49.196Z,55.33
2023-05-01T09:52:24.648Z,55.35
2023-05-01T09:53:27.820Z,56.10
2023-05-01T09:54:31.325Z,56.28
2023-05-01T09:56:06.923Z,58.60
2023-05-01T09:57:10.229Z,58.64
2023-05-01T09:58:13.790Z,55.08
2023-05-01T09:59:49.431Z,54.50
2023-05-01T10:00:18.305Z,56.77
2023-05-01T10:01:21.828Z,56.55
2023-05-01T10:02:26.000Z,57.07
2023-05-01T10:04:02.699Z,57.30
2023-05-01T10:05:06.528Z,55.89
2023-05-01T10:06:10.280Z,54.50
2023-05-01T10:07:46.720Z,56.65
2023-05-01T10:08:50.278Z,58.49
2023-05-01T10:09:53.556Z,58.84
2023-05-01T10:11:31.930Z,56.80
2023-05-01T10:12:35.488Z,55.11
2023-05-01T10:13:39.003Z,55.31
2023-05-01T10:15:30.036Z,56.68
2023-05-01T10:16:33.517Z,55.34
2023-05-01T10:17:37.591Z,55.03
2023-05-01T10:19:13.731Z,55.76
2023-05-01T10:20:17.312Z,54.75
2023-05-01T10:21:20.925Z,55.40
2023-05-01T10:22:56.619Z,55.36
2023-05-01T10:23:59.952Z,54.34
2023-05-01T10:25:03.790Z,54.86
2023-05-01T10:26:41.637Z,55.66
2023-05-01T10:27:45.256Z,55.48
2023-05-01T10:28:48.586Z,54.64
2023-05-01T10:30:24.390Z,52.85
2023-05-01T10:31:28.290Z,53.72
2023-05-01T10:32:35.335Z,56.60
2023-05-01T10:34:11.049Z,55.45
2023-05-01T10:35:15.308Z,54.23
2023-05-01T10:36:18.886Z,53.52
2023-05-01T10:37:54.792Z,54.88
2023-05-01T10:38:58.316Z,56.57
2023-05-01T10:40:01.892Z,55.49
2023-05-01T10:41:37.496Z,52.05
2023-05-01T10:42:41.124Z,54.50
2023-05-01T10:43:44.703Z,54.49
2023-05-01T10:45:20.497Z,50.33
2023-05-01T10:46:26.789Z,51.08
2023-05-01T10:47:31.185Z,49.29
2023-05-01T10:49:07.183Z,50.96
2023-05-01T10:50:10.622Z,49.12
2023-05-01T10:51:14.280Z,49.78
2023-05-01T10:52:52.402Z,49.24
2023-05-01T10:53:55.783Z,49.48
2023-05-01T10:54:59.231Z,51.18
2023-05-01T10:56:34.890Z,51.73
2023-05-01T10:57:38.463Z,52.42
2023-05-01T10:58:41.975Z,51.28
2023-05-01T11:00:18.094Z,51.69
2023-05-01T11:01:21.892Z,51.70
2023-05-01T11:02:26.608Z,51.67
2023-05-01T11:04:02.488Z,52.46
2023-05-01T11:05:06.410Z,52.41
2023-05-01T11:06:25.602Z,51.33
2023-05-01T11:08:02.478Z,52.47
2023-05-01T11:09:05.734Z,52.18
2023-05-01T11:10:09.211Z,53.46
2023-05-01T11:11:44.600Z,53.84
2023-05-01T11:12:48.265Z,53.98
2023-05-01T11:13:51.701Z,54.30
2023-05-01T11:15:27.284Z,52.56
2023-05-01T11:16:30.907Z,52.94
2023-05-01T11:17:35.677Z,51.96
2023-05-01T11:19:11.794Z,52.58
2023-05-01T11:20:16.045Z,51.25
2023-05-01T11:21:19.446Z,52.32
2023-05-01T11:22:54.913Z,52.93
2023-05-01T11:23:58.431Z,51.99
2023-05-01T11:25:02.056Z,53.62
2023-05-01T11:26:38.397Z,54.77
2023-05-01T11:27:41.738Z,53.02
2023-05-01T11:28:45.141Z,53.30
2023-05-01T11:30:20.698Z,52.77
2023-05-01T11:31:24.304Z,52.58
2023-05-01T11:32:28.448Z,52.54
2023-05-01T11:34:04.483Z,52.82
2023-05-01T11:35:08.341Z,52.82
2023-05-01T11:36:11.960Z,52.09
2023-05-01T11:37:47.434Z,53.10
2023-05-01T11:38:51.002Z,52.40
2023-05-01T11:39:54.433Z,52.19
2023-05-01T11:41:30.005Z,50.72
2023-05-01T11:42:33.899Z,51.73
2023-05-01T11:43:37.565Z,50.47
2023-05-01T11:45:13.269Z,48.96
2023-05-01T11:46:17.602Z,49.46
2023-05-01T11:47:21.497Z,48.70
2023-05-01T11:48:57.222Z,48.83
2023-05-01T11:50:00.666Z,46.11
2023-05-01T11:51:04.180Z,48.12
2023-05-01T11:52:39.665Z,47.27
2023-05-01T11:53:43.108Z,47.42
2023-05-01T11:54:46.863Z,50.57
2023-05-01T11:56:32.632Z,49.38
2023-05-01T11:57:36.318Z,48.33
2023-05-01T11:58:39.816Z,44.33
2023-05-01T12:00:18.533Z,46.50
2023-05-01T12:01:22.047Z,43.38
2023-05-01T12:02:25.521Z,45.16
2023-05-01T12:04:02.407Z,45.10
2023-05-01T12:05:10.649Z,44.30
2023-05-01T12:06:14.106Z,42.88
2023-05-01T12:07:50.239Z,43.09
2023-05-01T12:08:53.495Z,44.13
2023-05-01T12:09:56.836Z,42.95
2023-05-01T12:11:32.424Z,45.06
2023-05-01T12:12:39.031Z,46.68
2023-05-01T12:13:42.677Z,44.39
2023-05-01T12:15:18.277Z,44.10
2023-05-01T12:16:21.674Z,44.40
2023-05-01T12:17:25.885Z,45.46
2023-05-01T12:19:02.379Z,46.08
2023-05-01T12:20:08.154Z,46.41
2023-05-01T12:21:11.895Z,45.68
2023-05-01T12:22:47.509Z,45.91
2023-05-01T12:23:51.161Z,45.82
2023-05-01T12:24:54.612Z,45.59
2023-05-01T12:26:30.545Z,44.34
2023-05-01T12:27:33.837Z,45.20
2023-05-01T12:28:37.308Z,44.53
2023-05-01T12:30:13.002Z,45.43
2023-05-01T12:31:16.598Z,46.88
2023-05-01T12:32:20.427Z,46.88
2023-05-01T12:33:56.580Z,45.90
2023-05-01T12:35:00.162Z,46.81
2023-05-01T12:36:03.997Z,46.90
2023-05-01T12:37:39.537Z,46.36
2023-05-01T12:38:43.124Z,47.64
2023-05-01T12:39:46.743Z,47.21
2023-05-01T12:41:22.244Z,44.85
2023-05-01T12:42:25.993Z,44.98
2023-05-01T12:43:29.191Z,44.00
2023-05-01T12:45:07.451Z,47.43
2023-05-01T12:46:11.167Z,47.16
2023-05-01T12:47:14.852Z,45.50
2023-05-01T12:48:53.066Z,45.34
2023-05-01T12:49:57.869Z,44.92
2023-05-01T12:51:01.607Z,44.66
2023-05-01T12:52:37.388Z,47.53
2023-05-01T12:53:40.750Z,47.53
2023-05-01T12:54:43.914Z,47.53
2023-05-01T12:56:19.546Z,47.53
2023-05-01T12:57:22.939Z,47.53
2023-05-01T12:58:26.483Z,47.53
2023-05-01T13:00:18.241Z,47.53
2023-05-01T13:01:21.879Z,46.02
2023-05-01T13:02:26.429Z,45.14
2023-05-01T13:04:02.676Z,46.89
2023-05-01T13:05:06.966Z,44.84
2023-05-01T13:06:10.423Z,44.48
2023-05-01T13:07:46.252Z,45.57
2023-05-01T13:08:49.655Z,45.30
2023-05-01T13:09:53.294Z,45.30
2023-05-01T13:11:29.427Z,44.07
2023-05-01T13:12:32.777Z,42.24
2023-05-01T13:13:36.514Z,41.80
2023-05-01T13:15:12.068Z,44.87
2023-05-01T13:16:15.802Z,44.43
2023-05-01T13:17:19.658Z,43.61
2023-05-01T13:18:55.727Z,42.94
2023-05-01T13:19:59.641Z,44.56
2023-05-01T13:21:03.302Z,42.54
2023-05-01T13:22:39.081Z,43.80
2023-05-01T13:23:42.436Z,43.43
2023-05-01T13:24:46.053Z,43.26
2023-05-01T13:26:21.539Z,43.93
2023-05-01T13:27:25.090Z,45.37
2023-05-01T13:28:28.912Z,45.37
2023-05-01T13:30:05.092Z,44.05
2023-05-01T13:31:08.771Z,45.64
2023-05-01T13:32:12.956Z,45.37
2023-05-01T13:33:48.938Z,45.54
2023-05-01T13:34:52.543Z,45.79
2023-05-01T13:35:55.995Z,43.42
2023-05-01T13:37:50.832Z,43.19
2023-05-01T13:38:54.640Z,44.71
2023-05-01T13:40:01.823Z,44.30
2023-05-01T13:41:37.436Z,44.30
2023-05-01T13:42:41.102Z,43.77
2023-05-01T13:43:44.758Z,42.85
2023-05-01T13:45:20.532Z,41.11
2023-05-01T13:46:24.915Z,41.88
2023-05-01T13:47:29.195Z,41.94
2023-05-01T13:49:05.167Z,39.62
2023-05-01T13:50:09.003Z,41.24
2023-05-01T13:51:12.669Z,41.34
2023-05-01T13:52:48.281Z,41.86
2023-05-01T13:53:51.972Z,41.98
2023-05-01T13:54:56.027Z,43.51
2023-05-01T13:56:34.913Z,43.27
2023-05-01T13:57:38.444Z,43.32
2023-05-01T13:58:41.831Z,42.00
2023-05-01T14:00:18.179Z,42.27
2023-05-01T14:01:22.080Z,42.86
2023-05-01T14:02:26.158Z,43.47
2023-05-01T14:04:03.120Z,43.53
2023-05-01T14:05:07.558Z,43.70
2023-05-01T14:06:11.445Z,43.83
2023-05-01T14:07:47.674Z,43.77
2023-05-01T14:08:51.388Z,46.05
2023-05-01T14:09:55.106Z,43.41
2023-05-01T14:11:30.692Z,44.08
2023-05-01T14:12:34.478Z,45.18
2023-05-01T14:13:37.937Z,45.05
2023-05-01T14:15:13.681Z,45.96
2023-05-01T14:16:17.652Z,46.70
2023-05-01T14:17:21.374Z,48.32
2023-05-01T14:18:57.778Z,48.09
2023-05-01T14:20:01.380Z,47.49
2023-05-01T14:21:04.829Z,49.06
2023-05-01T14:22:40.385Z,49.42
2023-05-01T14:23:43.788Z,48.26
2023-05-01T14:24:47.027Z,48.54
2023-05-01T14:26:23.157Z,49.22
2023-05-01T14:27:29.494Z,49.32
2023-05-01T14:28:32.926Z,49.90
2023-05-01T14:30:08.591Z,50.85
2023-05-01T14:31:11.961Z,51.44
2023-05-01T14:32:15.828Z,52.61
2023-05-01T14:33:52.112Z,52.33
2023-05-01T14:34:55.978Z,52.20
2023-05-01T14:35:59.652Z,52.31
2023-05-01T14:37:35.431Z,53.04
2023-05-01T14:38:39.072Z,53.29
2023-05-01T14:39:42.782Z,53.48
2023-05-01T14:41:18.381Z,52.84
2023-05-01T14:42:21.885Z,52.40
2023-05-01T14:43:25.526Z,52.44
2023-05-01T14:45:01.625Z,53.95
2023-05-01T14:46:05.330Z,54.70
2023-05-01T14:47:09.193Z,54.85
2023-05-01T14:48:45.132Z,53.53
2023-05-01T14:49:48.655Z,54.67
2023-05-01T14:50:52.366Z,54.64
2023-05-01T14:52:27.892Z,55.47
2023-05-01T14:53:31.403Z,55.29
2023-05-01T14:54:34.919Z,54.82
2023-05-01T14:56:11.318Z,54.66
2023-05-01T14:57:14.779Z,55.18
2023-05-01T14:58:21.309Z,56.17
2023-05-01T14:59:56.809Z,55.79
2023-05-01T15:00:18.667Z,56.52
2023-05-01T15:01:22.717Z,56.17
2023-05-01T15:02:26.660Z,55.19
2023-05-01T15:04:04.017Z,55.24
2023-05-01T15:05:08.950Z,55.97
2023-05-01T15:06:12.605Z,56.06
2023-05-01T15:07:48.522Z,57.08
2023-05-01T15:08:51.991Z,56.47
2023-05-01T15:09:55.656Z,56.75
2023-05-01T15:11:31.494Z,56.71
2023-05-01T15:12:34.987Z,57.13
2023-05-01T15:13:38.274Z,55.60
2023-05-01T15:15:14.163Z,56.47
2023-05-01T15:16:17.718Z,55.99
2023-05-01T15:17:21.740Z,56.23
2023-05-01T15:18:57.646Z,56.12
2023-05-01T15:20:01.347Z,55.30
2023-05-01T15:21:04.976Z,55.51
2023-05-01T15:22:41.194Z,55.83
2023-05-01T15:23:44.758Z,55.17
2023-05-01T15:24:48.362Z,54.93
2023-05-01T15:26:24.572Z,54.29
2023-05-01T15:27:28.244Z,55.95
2023-05-01T15:28:32.598Z,55.40
2023-05-01T15:30:08.193Z,55.76
2023-05-01T15:31:12.199Z,56.11
2023-05-01T15:32:18.986Z,55.79
2023-05-01T15:33:59.179Z,56.17
2023-05-01T15:35:03.198Z,56.43
2023-05-01T15:36:06.511Z,55.64
2023-05-01T15:37:42.720Z,56.36
2023-05-01T15:38:46.018Z,56.04
2023-05-01T15:39:49.617Z,56.40
2023-05-01T15:41:25.247Z,56.44
2023-05-01T15:42:28.855Z,55.50
2023-05-01T15:43:32.413Z,55.70
2023-05-01T15:45:08.290Z,56.21
2023-05-01T15:46:12.466Z,55.63
2023-05-01T15:47:16.658Z,55.45
2023-05-01T15:48:52.941Z,55.70
2023-05-01T15:49:56.192Z,55.78
2023-05-01T15:51:01.648Z,56.21
2023-05-01T15:52:37.284Z,55.43
2023-05-01T15:53:40.654Z,55.42
2023-05-01T15:54:44.174Z,55.05